sensor_id;sensor_type;location;lat;lon;timestamp;pressure;altitude;pressure_sealevel;temperature;humidity
64872;BME280;51351;51.450;6.614;2024-01-11T00:06:46;103041.53;;;-4.14;89.57
64872;BME280;51351;51.450;6.614;2024-01-11T00:09:16;103044.94;;;-4.13;89.49
64872;BME280;51351;51.450;6.614;2024-01-11T00:15:12;103039.06;;;-4.03;91.22
64872;BME280;51351;51.450;6.614;2024-01-11T00:17:38;103039.09;;;-3.99;90.14
64872;BME280;51351;51.450;6.614;2024-01-11T00:20:04;103037.44;;;-3.97;89.62
64872;BME280;51351;51.450;6.614;2024-01-11T00:22:30;103042.56;;;-3.94;89.18
64872;BME280;51351;51.450;6.614;2024-01-11T00:24:56;103032.34;;;-3.94;89.23
64872;BME280;51351;51.450;6.614;2024-01-11T00:27:22;103034.03;;;-3.96;89.22
64872;BME280;51351;51.450;6.614;2024-01-11T00:29:47;103022.91;;;-4.01;89.53
64872;BME280;51351;51.450;6.614;2024-01-11T00:32:15;103023.72;;;-4.09;89.05
64872;BME280;51351;51.450;6.614;2024-01-11T00:34:42;103027.06;;;-4.16;88.96
64872;BME280;51351;51.450;6.614;2024-01-11T00:37:23;103020.22;;;-4.23;89.19
64872;BME280;51351;51.450;6.614;2024-01-11T00:40:15;103024.41;;;-4.31;90.38
64872;BME280;51351;51.450;6.614;2024-01-11T00:43:00;103023.53;;;-4.33;92.17
64872;BME280;51351;51.450;6.614;2024-01-11T00:45:40;103017.56;;;-4.35;91.57
64872;BME280;51351;51.450;6.614;2024-01-11T00:48:18;103026.06;;;-4.36;92.14
64872;BME280;51351;51.450;6.614;2024-01-11T00:50:49;103020.97;;;-4.36;91.62
64872;BME280;51351;51.450;6.614;2024-01-11T00:53:19;103020.94;;;-4.39;91.59
64872;BME280;51351;51.450;6.614;2024-01-11T00:56:03;103018.38;;;-4.39;92.17
64872;BME280;51351;51.450;6.614;2024-01-11T00:58:49;103020.91;;;-4.42;91.25
64872;BME280;51351;51.450;6.614;2024-01-11T01:01:17;103020.06;;;-4.43;91.42
64872;BME280;51351;51.450;6.614;2024-01-11T01:03:44;103020.06;;;-4.43;92.36
64872;BME280;51351;51.450;6.614;2024-01-11T01:06:25;103013.25;;;-4.42;93.60
64872;BME280;51351;51.450;6.614;2024-01-11T01:09:56;103015.78;;;-4.48;93.23
64872;BME280;51351;51.450;6.614;2024-01-11T01:13:09;103028.47;;;-4.54;94.22
64872;BME280;51351;51.450;6.614;2024-01-11T01:15:38;103022.44;;;-4.61;94.93
64872;BME280;51351;51.450;6.614;2024-01-11T01:18:11;103021.53;;;-4.67;94.03
64872;BME280;51351;51.450;6.614;2024-01-11T01:20:40;103018.09;;;-4.72;94.75
64872;BME280;51351;51.450;6.614;2024-01-11T01:23:38;103030.75;;;-4.80;95.83
64872;BME280;51351;51.450;6.614;2024-01-11T01:26:10;103028.97;;;-4.87;95.67
64872;BME280;51351;51.450;6.614;2024-01-11T01:28:49;103031.50;;;-4.90;94.88
64872;BME280;51351;51.450;6.614;2024-01-11T01:31:48;103031.47;;;-4.96;95.91
64872;BME280;51351;51.450;6.614;2024-01-11T01:34:33;103034.75;;;-5.02;97.28
64872;BME280;51351;51.450;6.614;2024-01-11T01:37:20;103043.25;;;-5.03;97.92
64872;BME280;51351;51.450;6.614;2024-01-11T01:39:52;103052.59;;;-5.05;97.59
64872;BME280;51351;51.450;6.614;2024-01-11T01:42:30;103053.41;;;-5.06;97.57
64872;BME280;51351;51.450;6.614;2024-01-11T01:45:29;103059.38;;;-5.04;97.25
64872;BME280;51351;51.450;6.614;2024-01-11T01:48:07;103049.19;;;-5.04;98.15
64872;BME280;51351;51.450;6.614;2024-01-11T01:51:23;103049.19;;;-5.05;98.32
64872;BME280;51351;51.450;6.614;2024-01-11T01:53:53;103046.63;;;-5.07;99.79
64872;BME280;51351;51.450;6.614;2024-01-11T01:56:27;103047.47;;;-5.06;98.79
64872;BME280;51351;51.450;6.614;2024-01-11T01:59:08;103039.81;;;-5.09;98.64
64872;BME280;51351;51.450;6.614;2024-01-11T02:01:43;103036.38;;;-5.10;97.50
64872;BME280;51351;51.450;6.614;2024-01-11T02:04:38;103038.06;;;-5.13;96.70
64872;BME280;51351;51.450;6.614;2024-01-11T02:07:16;103035.47;;;-5.16;95.43
64872;BME280;51351;51.450;6.614;2024-01-11T02:09:56;103034.56;;;-5.21;99.34
64872;BME280;51351;51.450;6.614;2024-01-11T02:12:47;103041.31;;;-5.23;100.00
64872;BME280;51351;51.450;6.614;2024-01-11T02:15:19;103048.94;;;-5.26;100.00
64872;BME280;51351;51.450;6.614;2024-01-11T02:17:55;103051.50;;;-5.26;100.00
64872;BME280;51351;51.450;6.614;2024-01-11T02:20:27;103047.22;;;-5.26;100.00
64872;BME280;51351;51.450;6.614;2024-01-11T02:23:11;103057.44;;;-5.24;100.00
64872;BME280;51351;51.450;6.614;2024-01-11T02:25:41;103064.22;;;-5.26;100.00
64872;BME280;51351;51.450;6.614;2024-01-11T02:28:06;103059.94;;;-5.27;100.00
64872;BME280;51351;51.450;6.614;2024-01-11T02:30:44;103056.56;;;-5.28;99.05
64872;BME280;51351;51.450;6.614;2024-01-11T02:33:14;103056.53;;;-5.29;100.00
64872;BME280;51351;51.450;6.614;2024-01-11T02:35:54;103062.50;;;-5.27;100.00
64872;BME280;51351;51.450;6.614;2024-01-11T02:38:34;103059.13;;;-5.23;100.00
64872;BME280;51351;51.450;6.614;2024-01-11T02:41:21;103057.47;;;-5.23;100.00
64872;BME280;51351;51.450;6.614;2024-01-11T02:43:55;103055.75;;;-5.24;100.00
64872;BME280;51351;51.450;6.614;2024-01-11T02:46:22;103049.78;;;-5.24;100.00
64872;BME280;51351;51.450;6.614;2024-01-11T02:48:55;103053.22;;;-5.24;100.00
64872;BME280;51351;51.450;6.614;2024-01-11T02:51:30;103054.88;;;-5.26;100.00
64872;BME280;51351;51.450;6.614;2024-01-11T02:53:56;103057.41;;;-5.26;100.00
64872;BME280;51351;51.450;6.614;2024-01-11T02:56:21;103059.13;;;-5.28;100.00
64872;BME280;51351;51.450;6.614;2024-01-11T02:58:49;103054.81;;;-5.30;100.00
64872;BME280;51351;51.450;6.614;2024-01-11T03:01:17;103052.25;;;-5.32;100.00
64872;BME280;51351;51.450;6.614;2024-01-11T03:03:43;103054.75;;;-5.35;100.00
64872;BME280;51351;51.450;6.614;2024-01-11T03:06:09;103050.47;;;-5.39;100.00
64872;BME280;51351;51.450;6.614;2024-01-11T03:08:36;103053.00;;;-5.40;100.00
64872;BME280;51351;51.450;6.614;2024-01-11T03:11:02;103039.41;;;-5.42;100.00
64872;BME280;51351;51.450;6.614;2024-01-11T03:13:28;103038.47;;;-5.47;100.00
64872;BME280;51351;51.450;6.614;2024-01-11T03:15:56;103037.59;;;-5.51;100.00
64872;BME280;51351;51.450;6.614;2024-01-11T03:18:24;103034.13;;;-5.54;100.00
64872;BME280;51351;51.450;6.614;2024-01-11T03:21:01;103033.25;;;-5.56;100.00
64872;BME280;51351;51.450;6.614;2024-01-11T03:23:31;103041.72;;;-5.59;100.00
64872;BME280;51351;51.450;6.614;2024-01-11T03:26:03;103046.75;;;-5.62;100.00
64872;BME280;51351;51.450;6.614;2024-01-11T03:28:31;103053.50;;;-5.65;100.00
64872;BME280;51351;51.450;6.614;2024-01-11T03:31:02;103052.63;;;-5.67;100.00
64872;BME280;51351;51.450;6.614;2024-01-11T03:33:38;103053.50;;;-5.67;100.00
64872;BME280;51351;51.450;6.614;2024-01-11T03:36:23;103062.78;;;-5.69;100.00
64872;BME280;51351;51.450;6.614;2024-01-11T03:38:55;103060.19;;;-5.72;100.00
64872;BME280;51351;51.450;6.614;2024-01-11T03:41:25;103055.09;;;-5.72;100.00
64872;BME280;51351;51.450;6.614;2024-01-11T03:43:57;103056.81;;;-5.72;100.00
64872;BME280;51351;51.450;6.614;2024-01-11T03:46:25;103052.50;;;-5.75;100.00
64872;BME280;51351;51.450;6.614;2024-01-11T03:49:42;103047.44;;;-5.75;100.00
64872;BME280;51351;51.450;6.614;2024-01-11T03:52:08;103044.84;;;-5.76;100.00
64872;BME280;51351;51.450;6.614;2024-01-11T03:54:38;103052.50;;;-5.76;100.00
64872;BME280;51351;51.450;6.614;2024-01-11T03:57:22;103073.66;;;-5.80;100.00
64872;BME280;51351;51.450;6.614;2024-01-11T03:59:57;103071.09;;;-5.80;100.00
64872;BME280;51351;51.450;6.614;2024-01-11T04:02:25;103069.44;;;-5.81;100.00
64872;BME280;51351;51.450;6.614;2024-01-11T04:05:07;103084.66;;;-5.84;100.00
64872;BME280;51351;51.450;6.614;2024-01-11T04:07:39;103075.38;;;-5.82;100.00
64872;BME280;51351;51.450;6.614;2024-01-11T04:10:09;103080.47;;;-5.82;100.00
64872;BME280;51351;51.450;6.614;2024-01-11T04:12:44;103084.69;;;-5.83;100.00
64872;BME280;51351;51.450;6.614;2024-01-11T04:15:12;103084.69;;;-5.83;100.00
64872;BME280;51351;51.450;6.614;2024-01-11T04:17:43;103085.53;;;-5.81;100.00
64872;BME280;51351;51.450;6.614;2024-01-11T04:20:13;103083.81;;;-5.80;100.00
64872;BME280;51351;51.450;6.614;2024-01-11T04:23:05;103090.63;;;-5.82;100.00
64872;BME280;51351;51.450;6.614;2024-01-11T04:25:52;103089.78;;;-5.81;100.00
64872;BME280;51351;51.450;6.614;2024-01-11T04:28:17;103088.09;;;-5.82;100.00
64872;BME280;51351;51.450;6.614;2024-01-11T04:30:46;103089.78;;;-5.81;100.00
64872;BME280;51351;51.450;6.614;2024-01-11T04:33:13;103084.69;;;-5.83;100.00
64872;BME280;51351;51.450;6.614;2024-01-11T04:35:45;103084.66;;;-5.84;100.00
64872;BME280;51351;51.450;6.614;2024-01-11T04:38:13;103090.56;;;-5.87;100.00
64872;BME280;51351;51.450;6.614;2024-01-11T04:40:41;103088.00;;;-5.88;100.00
64872;BME280;51351;51.450;6.614;2024-01-11T04:43:12;103091.34;;;-5.89;100.00
64872;BME280;51351;51.450;6.614;2024-01-11T04:45:38;103094.72;;;-5.90;100.00
64872;BME280;51351;51.450;6.614;2024-01-11T04:48:28;103104.88;;;-5.92;100.00
64872;BME280;51351;51.450;6.614;2024-01-11T04:50:55;103094.69;;;-5.93;100.00
64872;BME280;51351;51.450;6.614;2024-01-11T04:53:22;103092.97;;;-5.94;100.00
64872;BME280;51351;51.450;6.614;2024-01-11T04:55:51;103100.59;;;-5.96;100.00
64872;BME280;51351;51.450;6.614;2024-01-11T04:58:17;103106.50;;;-5.97;100.00
64872;BME280;51351;51.450;6.614;2024-01-11T05:00:42;103101.34;;;-6.01;100.00
64872;BME280;51351;51.450;6.614;2024-01-11T05:03:13;103095.41;;;-6.02;100.00
64872;BME280;51351;51.450;6.614;2024-01-11T05:05:39;103101.34;;;-6.01;100.00
64872;BME280;51351;51.450;6.614;2024-01-11T05:08:06;103096.22;;;-6.04;100.00
64872;BME280;51351;51.450;6.614;2024-01-11T05:10:32;103112.38;;;-6.02;100.00
64872;BME280;51351;51.450;6.614;2024-01-11T05:12:58;103121.66;;;-6.03;100.00
64872;BME280;51351;51.450;6.614;2024-01-11T05:15:24;103112.31;;;-6.05;100.00
64872;BME280;51351;51.450;6.614;2024-01-11T05:17:50;103104.63;;;-6.08;100.00
64872;BME280;51351;51.450;6.614;2024-01-11T05:20:16;103112.25;;;-6.08;100.00
64872;BME280;51351;51.450;6.614;2024-01-11T05:22:42;103113.94;;;-6.09;100.00
64872;BME280;51351;51.450;6.614;2024-01-11T05:25:09;103126.63;;;-6.10;100.00
64872;BME280;51351;51.450;6.614;2024-01-11T05:27:35;103124.97;;;-6.08;100.00
64872;BME280;51351;51.450;6.614;2024-01-11T05:30:01;103129.25;;;-6.06;100.00
64872;BME280;51351;51.450;6.614;2024-01-11T05:32:26;103120.00;;;-6.02;100.00
64872;BME280;51351;51.450;6.614;2024-01-11T05:34:53;103127.63;;;-6.02;100.00
64872;BME280;51351;51.450;6.614;2024-01-11T05:37:19;103129.31;;;-6.01;100.00
64872;BME280;51351;51.450;6.614;2024-01-11T05:39:46;103127.66;;;-5.99;100.00
64872;BME280;51351;51.450;6.614;2024-01-11T05:42:12;103132.72;;;-5.99;100.00
64872;BME280;51351;51.450;6.614;2024-01-11T05:44:50;103137.00;;;-6.00;100.00
64872;BME280;51351;51.450;6.614;2024-01-11T05:47:25;103147.16;;;-6.00;100.00
64872;BME280;51351;51.450;6.614;2024-01-11T05:49:50;103149.75;;;-5.97;100.00
64872;BME280;51351;51.450;6.614;2024-01-11T05:52:16;103151.44;;;-5.97;100.00
64872;BME280;51351;51.450;6.614;2024-01-11T05:54:42;103165.81;;;-5.98;100.00
64872;BME280;51351;51.450;6.614;2024-01-11T05:57:08;103166.72;;;-5.96;100.00
64872;BME280;51351;51.450;6.614;2024-01-11T05:59:34;103168.44;;;-5.95;100.00
64872;BME280;51351;51.450;6.614;2024-01-11T06:01:59;103168.44;;;-5.95;100.00
64872;BME280;51351;51.450;6.614;2024-01-11T06:04:27;103148.13;;;-5.92;100.00
64872;BME280;51351;51.450;6.614;2024-01-11T06:06:53;103144.78;;;-5.91;100.00
64872;BME280;51351;51.450;6.614;2024-01-11T06:09:21;103138.81;;;-5.91;100.00
64872;BME280;51351;51.450;6.614;2024-01-11T06:11:46;103142.22;;;-5.92;100.00
64872;BME280;51351;51.450;6.614;2024-01-11T06:14:12;103150.69;;;-5.92;100.00
64872;BME280;51351;51.450;6.614;2024-01-11T06:16:40;103142.22;;;-5.91;100.00
64872;BME280;51351;51.450;6.614;2024-01-11T06:19:06;103132.91;;;-5.90;100.00
64872;BME280;51351;51.450;6.614;2024-01-11T06:21:33;103136.28;;;-5.91;100.00
64872;BME280;51351;51.450;6.614;2024-01-11T06:24:01;103146.41;;;-5.94;100.00
64872;BME280;51351;51.450;6.614;2024-01-11T06:26:28;103149.75;;;-5.97;100.00
64872;BME280;51351;51.450;6.614;2024-01-11T06:28:54;103142.06;;;-6.00;100.00
64872;BME280;51351;51.450;6.614;2024-01-11T06:31:19;103133.59;;;-5.99;100.00
64872;BME280;51351;51.450;6.614;2024-01-11T06:33:47;103125.09;;;-6.02;100.00
64872;BME280;51351;51.450;6.614;2024-01-11T06:36:13;103125.88;;;-6.05;100.00
64872;BME280;51351;51.450;6.614;2024-01-11T06:38:38;103152.06;;;-6.10;100.00
64872;BME280;51351;51.450;6.614;2024-01-11T06:41:04;103158.81;;;-6.12;100.00
64872;BME280;51351;51.450;6.614;2024-01-11T06:43:30;103148.63;;;-6.14;100.00
64872;BME280;51351;51.450;6.614;2024-01-11T06:46:04;103141.81;;;-6.15;100.00
64872;BME280;51351;51.450;6.614;2024-01-11T06:48:31;103150.25;;;-6.17;100.00
64872;BME280;51351;51.450;6.614;2024-01-11T06:50:56;103154.44;;;-6.19;100.00
64872;BME280;51351;51.450;6.614;2024-01-11T06:53:25;103158.59;;;-6.24;100.00
64872;BME280;51351;51.450;6.614;2024-01-11T06:55:50;103176.34;;;-6.27;100.00
64872;BME280;51351;51.450;6.614;2024-01-11T06:58:20;103186.47;;;-6.29;100.00
64872;BME280;51351;51.450;6.614;2024-01-11T07:00:45;103189.94;;;-6.25;100.00
64872;BME280;51351;51.450;6.614;2024-01-11T07:03:11;103189.16;;;-6.23;100.00
64872;BME280;51351;51.450;6.614;2024-01-11T07:05:37;103179.84;;;-6.21;100.00
64872;BME280;51351;51.450;6.614;2024-01-11T07:08:03;103179.03;;;-6.20;100.00
64872;BME280;51351;51.450;6.614;2024-01-11T07:10:29;103173.94;;;-6.20;100.00
64872;BME280;51351;51.450;6.614;2024-01-11T07:12:55;103171.38;;;-6.21;100.00
64872;BME280;51351;51.450;6.614;2024-01-11T07:15:22;103178.06;;;-6.25;100.00
64872;BME280;51351;51.450;6.614;2024-01-11T07:17:49;103177.97;;;-6.29;100.00
64872;BME280;51351;51.450;6.614;2024-01-11T07:20:14;103193.19;;;-6.32;100.00
64872;BME280;51351;51.450;6.614;2024-01-11T07:22:42;103186.38;;;-6.35;100.00
64872;BME280;51351;51.450;6.614;2024-01-11T07:25:08;103203.28;;;-6.37;100.00
64872;BME280;51351;51.450;6.614;2024-01-11T07:27:33;103205.00;;;-6.36;100.00
64872;BME280;51351;51.450;6.614;2024-01-11T07:29:58;103217.84;;;-6.28;100.00
64872;BME280;51351;51.450;6.614;2024-01-11T07:32:24;103203.53;;;-6.23;100.00
64872;BME280;51351;51.450;6.614;2024-01-11T07:34:50;103207.03;;;-6.18;100.00
64872;BME280;51351;51.450;6.614;2024-01-11T07:37:15;103210.44;;;-6.16;100.00
64872;BME280;51351;51.450;6.614;2024-01-11T07:39:41;103207.16;;;-6.12;100.00
64872;BME280;51351;51.450;6.614;2024-01-11T07:42:06;103204.59;;;-6.11;100.00
64872;BME280;51351;51.450;6.614;2024-01-11T07:44:32;103204.66;;;-6.08;100.00
64872;BME280;51351;51.450;6.614;2024-01-11T07:46:57;103197.94;;;-6.06;100.00
64872;BME280;51351;51.450;6.614;2024-01-11T07:49:23;103196.28;;;-6.04;100.00
64872;BME280;51351;51.450;6.614;2024-01-11T07:51:48;103194.59;;;-6.02;100.00
64872;BME280;51351;51.450;6.614;2024-01-11T07:54:14;103184.50;;;-5.97;100.00
64872;BME280;51351;51.450;6.614;2024-01-11T07:56:42;103190.53;;;-5.94;100.00
64872;BME280;51351;51.450;6.614;2024-01-11T07:59:07;103190.56;;;-5.91;100.00
64872;BME280;51351;51.450;6.614;2024-01-11T08:01:33;103184.69;;;-5.87;100.00
64872;BME280;51351;51.450;6.614;2024-01-11T08:04:00;103178.03;;;-5.77;100.00
64872;BME280;51351;51.450;6.614;2024-01-11T08:06:28;103181.53;;;-5.71;100.00
64872;BME280;51351;51.450;6.614;2024-01-11T08:08:55;103179.91;;;-5.66;100.00
64872;BME280;51351;51.450;6.614;2024-01-11T08:11:20;103186.84;;;-5.57;100.00
64872;BME280;51351;51.450;6.614;2024-01-11T08:13:46;103185.31;;;-5.48;100.00
64872;BME280;51351;51.450;6.614;2024-01-11T08:16:17;103185.44;;;-5.37;100.00
64872;BME280;51351;51.450;6.614;2024-01-11T08:18:44;103198.34;;;-5.27;100.00
64872;BME280;51351;51.450;6.614;2024-01-11T08:21:11;103190.03;;;-5.15;100.00
64872;BME280;51351;51.450;6.614;2024-01-11T08:23:40;103187.66;;;-5.00;100.00
64872;BME280;51351;51.450;6.614;2024-01-11T08:26:13;103189.63;;;-4.81;100.00
64872;BME280;51351;51.450;6.614;2024-01-11T08:28:44;103185.53;;;-4.67;100.00
64872;BME280;51351;51.450;6.614;2024-01-11T08:31:09;103186.47;;;-4.60;100.00
64872;BME280;51351;51.450;6.614;2024-01-11T08:33:34;103189.91;;;-4.57;100.00
64872;BME280;51351;51.450;6.614;2024-01-11T08:36:03;103210.31;;;-4.57;100.00
64872;BME280;51351;51.450;6.614;2024-01-11T08:38:29;103223.81;;;-4.64;100.00
64872;BME280;51351;51.450;6.614;2024-01-11T08:40:55;103216.16;;;-4.64;100.00
64872;BME280;51351;51.450;6.614;2024-01-11T08:43:21;103213.56;;;-4.68;100.00
64872;BME280;51351;51.450;6.614;2024-01-11T08:45:46;103207.69;;;-4.64;100.00
64872;BME280;51351;51.450;6.614;2024-01-11T08:48:12;103214.59;;;-4.56;100.00
64872;BME280;51351;51.450;6.614;2024-01-11T08:50:38;103209.59;;;-4.45;100.00
64872;BME280;51351;51.450;6.614;2024-01-11T08:53:03;103208.00;;;-4.37;100.00
64872;BME280;51351;51.450;6.614;2024-01-11T08:55:31;103211.53;;;-4.25;100.00
64872;BME280;51351;51.450;6.614;2024-01-11T08:57:58;103228.56;;;-4.21;99.63
64872;BME280;51351;51.450;6.614;2024-01-11T09:00:26;103204.06;;;-4.08;99.49
64872;BME280;51351;51.450;6.614;2024-01-11T09:02:51;103212.69;;;-3.94;98.33
64872;BME280;51351;51.450;6.614;2024-01-11T09:05:17;103215.38;;;-3.81;98.17
64872;BME280;51351;51.450;6.614;2024-01-11T09:07:42;103211.19;;;-3.74;96.82
64872;BME280;51351;51.450;6.614;2024-01-11T09:10:08;103219.72;;;-3.68;96.85
64872;BME280;51351;51.450;6.614;2024-01-11T09:12:36;103216.44;;;-3.56;96.57
64872;BME280;51351;51.450;6.614;2024-01-11T09:15:02;103210.50;;;-3.54;95.22
64872;BME280;51351;51.450;6.614;2024-01-11T09:17:28;103225.00;;;-3.51;94.65
64872;BME280;51351;51.450;6.614;2024-01-11T09:19:57;103231.84;;;-3.47;94.25
64872;BME280;51351;51.450;6.614;2024-01-11T09:22:23;103234.41;;;-3.44;93.73
64872;BME280;51351;51.450;6.614;2024-01-11T09:24:48;103239.56;;;-3.41;92.70
64872;BME280;51351;51.450;6.614;2024-01-11T09:27:14;103237.06;;;-3.35;92.29
64872;BME280;51351;51.450;6.614;2024-01-11T09:29:46;103235.47;;;-3.18;92.62
64872;BME280;51351;51.450;6.614;2024-01-11T09:32:14;103230.41;;;-3.12;91.75
64872;BME280;51351;51.450;6.614;2024-01-11T09:34:39;103232.94;;;-3.14;90.50
64872;BME280;51351;51.450;6.614;2024-01-11T09:37:05;103229.59;;;-3.02;90.55
64872;BME280;51351;51.450;6.614;2024-01-11T09:39:31;103233.84;;;-3.03;89.92
64872;BME280;51351;51.450;6.614;2024-01-11T09:42:07;103239.81;;;-3.05;90.20
64872;BME280;51351;51.450;6.614;2024-01-11T09:44:37;103241.47;;;-3.09;90.27
64872;BME280;51351;51.450;6.614;2024-01-11T09:47:10;103249.19;;;-3.03;90.31
64872;BME280;51351;51.450;6.614;2024-01-11T09:49:38;103239.88;;;-2.96;90.17
64872;BME280;51351;51.450;6.614;2024-01-11T09:52:05;103249.31;;;-2.88;90.59
64872;BME280;51351;51.450;6.614;2024-01-11T09:54:30;103249.28;;;-2.91;89.84
64872;BME280;51351;51.450;6.614;2024-01-11T09:56:59;103249.28;;;-2.89;89.87
64872;BME280;51351;51.450;6.614;2024-01-11T09:59:26;103246.75;;;-2.85;89.42
64872;BME280;51351;51.450;6.614;2024-01-11T10:01:52;103251.91;;;-2.76;89.80
64872;BME280;51351;51.450;6.614;2024-01-11T10:04:18;103251.09;;;-2.75;88.62
64872;BME280;51351;51.450;6.614;2024-01-11T10:06:44;103252.78;;;-2.72;88.83
64872;BME280;51351;51.450;6.614;2024-01-11T10:09:10;103267.28;;;-2.71;87.67
64872;BME280;51351;51.450;6.614;2024-01-11T10:11:37;103269.84;;;-2.71;88.64
64872;BME280;51351;51.450;6.614;2024-01-11T10:14:03;103277.50;;;-2.73;89.31
64872;BME280;51351;51.450;6.614;2024-01-11T10:16:30;103284.31;;;-2.75;89.32
64872;BME280;51351;51.450;6.614;2024-01-11T10:18:56;103276.66;;;-2.76;88.90
64872;BME280;51351;51.450;6.614;2024-01-11T10:21:24;103273.25;;;-2.71;88.89
64872;BME280;51351;51.450;6.614;2024-01-11T10:23:50;103274.13;;;-2.67;88.23
64872;BME280;51351;51.450;6.614;2024-01-11T10:26:16;103274.97;;;-2.67;87.77
64872;BME280;51351;51.450;6.614;2024-01-11T10:28:45;103277.56;;;-2.65;87.19
64872;BME280;51351;51.450;6.614;2024-01-11T10:31:11;103272.47;;;-2.59;87.29
64872;BME280;51351;51.450;6.614;2024-01-11T10:33:37;103275.88;;;-2.54;87.74
64872;BME280;51351;51.450;6.614;2024-01-11T10:36:03;103274.22;;;-2.51;87.04
64872;BME280;51351;51.450;6.614;2024-01-11T10:38:30;103287.88;;;-2.47;86.74
64872;BME280;51351;51.450;6.614;2024-01-11T10:41:00;103282.75;;;-2.46;84.78
64872;BME280;51351;51.450;6.614;2024-01-11T10:43:27;103275.97;;;-2.40;83.53
64872;BME280;51351;51.450;6.614;2024-01-11T10:46:00;103276.84;;;-2.29;83.00
64872;BME280;51351;51.450;6.614;2024-01-11T10:48:33;103276.00;;;-2.25;82.97
64872;BME280;51351;51.450;6.614;2024-01-11T10:51:08;103274.34;;;-2.20;83.96
64872;BME280;51351;51.450;6.614;2024-01-11T10:56:09;103273.53;;;-2.07;84.63
64872;BME280;51351;51.450;6.614;2024-01-11T10:58:40;103273.53;;;-2.09;83.33
64872;BME280;51351;51.450;6.614;2024-01-11T11:01:06;103279.50;;;-1.99;83.10
64872;BME280;51351;51.450;6.614;2024-01-11T11:03:33;103260.75;;;-1.94;82.58
64872;BME280;51351;51.450;6.614;2024-01-11T11:06:00;103263.31;;;-1.88;80.85
64872;BME280;51351;51.450;6.614;2024-01-11T11:08:26;103258.22;;;-1.77;80.55
64872;BME280;51351;51.450;6.614;2024-01-11T11:10:59;103262.53;;;-1.61;80.47
64872;BME280;51351;51.450;6.614;2024-01-11T11:13:24;103269.34;;;-1.57;80.03
64872;BME280;51351;51.450;6.614;2024-01-11T11:15:53;103278.75;;;-1.52;78.91
64872;BME280;51351;51.450;6.614;2024-01-11T11:18:19;103260.81;;;-1.43;78.30
64872;BME280;51351;51.450;6.614;2024-01-11T11:20:46;103259.97;;;-1.36;77.58
64872;BME280;51351;51.450;6.614;2024-01-11T11:23:15;103251.41;;;-1.27;77.49
64872;BME280;51351;51.450;6.614;2024-01-11T11:25:43;103249.69;;;-1.19;76.52
64872;BME280;51351;51.450;6.614;2024-01-11T11:28:15;103245.41;;;-1.10;75.80
64872;BME280;51351;51.450;6.614;2024-01-11T11:30:42;103247.09;;;-0.97;75.57
64872;BME280;51351;51.450;6.614;2024-01-11T11:33:08;103241.09;;;-0.88;74.92
64872;BME280;51351;51.450;6.614;2024-01-11T11:35:35;103241.09;;;-0.81;74.41
64872;BME280;51351;51.450;6.614;2024-01-11T11:38:02;103244.47;;;-0.77;72.90
64872;BME280;51351;51.450;6.614;2024-01-11T11:40:39;103246.16;;;-0.72;73.07
64872;BME280;51351;51.450;6.614;2024-01-11T11:43:11;103250.41;;;-0.63;72.38
64872;BME280;51351;51.450;6.614;2024-01-11T11:46:29;103253.84;;;-0.64;70.47
64872;BME280;51351;51.450;6.614;2024-01-11T11:49:16;103258.13;;;-0.63;70.34
64872;BME280;51351;51.450;6.614;2024-01-11T11:51:56;103249.59;;;-0.65;70.26
64872;BME280;51351;51.450;6.614;2024-01-11T11:54:24;103252.13;;;-0.56;71.26
64872;BME280;51351;51.450;6.614;2024-01-11T11:56:51;103250.41;;;-0.56;70.20
64872;BME280;51351;51.450;6.614;2024-01-11T11:59:17;103255.50;;;-0.45;69.91
64872;BME280;51351;51.450;6.614;2024-01-11T12:01:45;103242.66;;;-0.47;69.55
64872;BME280;51351;51.450;6.614;2024-01-11T12:04:13;103223.81;;;-0.46;69.90
64872;BME280;51351;51.450;6.614;2024-01-11T12:06:40;103229.81;;;-0.41;69.58
64872;BME280;51351;51.450;6.614;2024-01-11T12:09:20;103234.94;;;-0.41;69.41
64872;BME280;51351;51.450;6.614;2024-01-11T12:11:48;103218.66;;;-0.35;69.54
64872;BME280;51351;51.450;6.614;2024-01-11T12:14:17;103228.06;;;-0.34;69.36
64872;BME280;51351;51.450;6.614;2024-01-11T12:17:21;103224.59;;;-0.29;69.79
64872;BME280;51351;51.450;6.614;2024-01-11T12:19:51;103222.88;;;-0.27;70.00
64872;BME280;51351;51.450;6.614;2024-01-11T12:22:18;103227.13;;;-0.21;69.46
64872;BME280;51351;51.450;6.614;2024-01-11T12:24:55;103222.88;;;-0.25;69.33
64872;BME280;51351;51.450;6.614;2024-01-11T12:27:38;103233.16;;;-0.27;69.23
64872;BME280;51351;51.450;6.614;2024-01-11T12:30:07;103217.78;;;-0.31;69.88
64872;BME280;51351;51.450;6.614;2024-01-11T12:32:40;103217.75;;;-0.27;69.22
64872;BME280;51351;51.450;6.614;2024-01-11T12:35:08;103224.59;;;-0.26;69.40
64872;BME280;51351;51.450;6.614;2024-01-11T12:37:35;103222.88;;;-0.27;68.99
64872;BME280;51351;51.450;6.614;2024-01-11T12:40:04;103232.25;;;-0.18;68.98
64872;BME280;51351;51.450;6.614;2024-01-11T12:42:42;103233.13;;;-0.22;68.24
64872;BME280;51351;51.450;6.614;2024-01-11T12:45:18;103230.56;;;-0.19;67.19
64872;BME280;51351;51.450;6.614;2024-01-11T12:51:27;103229.69;;;-0.21;65.80
64872;BME280;51351;51.450;6.614;2024-01-11T12:54:23;103232.22;;;-0.14;65.39
64872;BME280;51351;51.450;6.614;2024-01-11T12:57:31;103228.81;;;-0.14;64.67
64872;BME280;51351;51.450;6.614;2024-01-11T13:00:35;103230.56;;;-0.18;64.26
64872;BME280;51351;51.450;6.614;2024-01-11T13:04:17;103233.09;;;-0.15;64.65
64872;BME280;51351;51.450;6.614;2024-01-11T13:06:49;103232.22;;;-0.12;64.42
64872;BME280;51351;51.450;6.614;2024-01-11T13:09:31;103221.97;;;-0.12;63.39
64872;BME280;51351;51.450;6.614;2024-01-11T13:11:58;103228.78;;;-0.10;62.95
64872;BME280;51351;51.450;6.614;2024-01-11T13:14:37;103237.34;;;-0.08;63.15
64872;BME280;51351;51.450;6.614;2024-01-11T13:17:09;103227.91;;;-0.09;62.19
64872;BME280;51351;51.450;6.614;2024-01-11T13:20:33;103233.91;;;-0.08;61.52
64872;BME280;51351;51.450;6.614;2024-01-11T13:23:47;103215.91;;;-0.05;61.32